Terminal Aerodrome Forecast
Issued by NWS

Current Version | Previous Version | Graphics & Text | Print | Product List | Glossary On
Versions: 1 2 3 4 5 6 7 8 9 10 11 12 13 14 15 16 17 18 19 20 21
000
FTUS41 KRLX 012300
TAFCKB
TAF
KCKB 012329Z 0200/0224 01006KT P6SM FEW060
     FM020900 00000KT 5SM BR FEW250
     FM021000 00000KT 1/2SM FG BKN001
     FM021200 29006KT P6SM SCT250=

USA.gov is the U.S. government's official web portal to all federal, state and local government web resources and services.